Time;durP1;ratioP1;P1;durP2;ratioP2;P2;SDS_P1;SDS_P2;PMS_P1;PMS_P2;Temp;Humidity;BMP_temperature;BMP_pressure;BME280_temperature;BME280_humidity;BME280_pressure;Samples;Min_cycle;Max_cycle;Signal;HPM_P1;HPM_P2
2021/06/23 00:00:55;;;;;;;4.60;4.20;;;;;;;21.15;95.50;95607.03;4991731;28;20816;-84
2021/06/23 00:03:25;;;;;;;4.82;4.40;;;;;;;21.20;96.00;95607.13;4991019;28;20794;-84
2021/06/23 00:05:52;;;;;;;4.90;4.57;;;;;;;21.26;95.65;95619.25;4991935;28;20230;-83
2021/06/23 00:08:20;;;;;;;4.53;4.22;;;;;;;21.39;92.99;95613.66;4991675;28;20234;-83
2021/06/23 00:10:49;;;;;;;4.20;3.75;;;;;;;21.41;93.03;95610.78;4991557;28;20238;-83
2021/06/23 00:13:16;;;;;;;4.63;4.22;;;;;;;21.35;94.07;95607.34;4991352;28;20223;-83
2021/06/23 00:15:43;;;;;;;4.53;3.70;;;;;;;21.36;95.25;95601.81;4987129;28;20208;-85
2021/06/23 00:18:09;;;;;;;4.45;3.53;;;;;;;21.55;94.00;95593.69;4980210;28;20206;-84
2021/06/23 00:20:38;;;;;;;3.67;3.38;;;;;;;21.74;92.10;95594.16;4984627;28;20203;-87
2021/06/23 00:23:06;;;;;;;3.75;3.30;;;;;;;21.90;91.83;95593.28;4981099;28;20219;-84
2021/06/23 00:25:37;;;;;;;3.60;3.30;;;;;;;22.08;90.30;95592.94;4982162;28;20242;-84
2021/06/23 00:28:06;;;;;;;3.78;3.47;;;;;;;22.19;88.10;95597.25;4979432;28;20223;-84
2021/06/23 00:30:33;;;;;;;3.60;3.30;;;;;;;22.31;87.91;95590.03;4971581;28;20275;-84
2021/06/23 00:33:09;;;;;;;3.92;3.25;;;;;;;22.42;87.17;95600.59;4987909;28;20223;-84
2021/06/23 00:35:37;;;;;;;3.70;3.40;;;;;;;22.44;86.08;95598.50;4991305;28;20260;-85
2021/06/23 00:38:04;;;;;;;4.38;3.25;;;;;;;22.47;85.60;95606.66;4979740;28;20200;-87
2021/06/23 00:40:34;;;;;;;4.13;3.72;;;;;;;22.45;85.53;95616.63;4980391;28;20204;-84
2021/06/23 00:43:08;;;;;;;3.97;3.67;;;;;;;22.49;84.09;95619.53;4990703;28;20306;-84
2021/06/23 00:45:36;;;;;;;4.00;3.60;;;;;;;22.47;83.90;95619.00;4991384;28;20198;-84
2021/06/23 00:48:09;;;;;;;3.80;3.50;;;;;;;22.41;83.61;95618.16;4984933;28;20258;-84
2021/06/23 00:50:36;;;;;;;3.75;3.45;;;;;;;22.35;82.60;95619.94;4971640;28;20217;-87
2021/06/23 00:53:04;;;;;;;4.38;3.90;;;;;;;22.30;82.94;95612.03;4971037;28;20290;-86
2021/06/23 00:55:34;;;;;;;4.18;3.78;;;;;;;22.29;82.60;95614.91;4970638;28;20196;-84
2021/06/23 00:58:03;;;;;;;3.90;3.60;;;;;;;22.28;83.34;95613.31;4983478;28;20269;-86
2021/06/23 01:00:35;;;;;;;4.10;3.80;;;;;;;22.23;82.49;95610.66;4990111;28;20203;-84
2021/06/23 01:03:06;;;;;;;4.60;3.85;;;;;;;22.17;81.63;95614.25;4989935;28;20215;-84
2021/06/23 01:05:33;;;;;;;3.80;3.50;;;;;;;22.12;83.50;95619.47;4990703;28;20199;-86
2021/06/23 01:08:11;;;;;;;4.30;3.95;;;;;;;22.02;83.27;95618.31;4990466;28;20255;-83
2021/06/23 01:10:43;;;;;;;4.10;3.70;;;;;;;22.05;83.86;95617.84;4990549;28;20210;-87
2021/06/23 01:13:44;;;;;;;3.97;3.60;;;;;;;22.05;85.57;95609.97;4989970;28;20219;-84
2021/06/23 01:16:12;;;;;;;3.92;3.60;;;;;;;22.11;84.79;95612.66;4990471;28;20207;-84
2021/06/23 01:18:42;;;;;;;4.20;3.80;;;;;;;22.15;83.63;95601.38;4990131;28;20211;-84
2021/06/23 01:21:09;;;;;;;4.93;3.30;;;;;;;22.17;83.86;95604.56;4989893;28;20229;-84
2021/06/23 01:23:43;;;;;;;4.25;3.85;;;;;;;22.16;83.86;95600.34;4989669;28;20219;-84
2021/06/23 01:26:14;;;;;;;3.63;3.38;;;;;;;22.17;83.30;95607.19;4990042;28;20202;-84
2021/06/23 01:28:45;;;;;;;3.50;3.22;;;;;;;22.15;82.57;95604.00;4990346;28;20218;-86
2021/06/23 01:31:18;;;;;;;3.50;3.25;;;;;;;22.10;82.50;95616.31;4989578;28;20250;-85
2021/06/23 01:34:01;;;;;;;4.15;3.70;;;;;;;22.11;82.90;95607.41;4990017;28;20914;-85
2021/06/23 01:36:30;;;;;;;4.03;3.33;;;;;;;22.09;83.86;95596.38;4989658;28;20199;-86
2021/06/23 01:39:02;;;;;;;3.55;3.30;;;;;;;22.09;82.96;95596.38;4970661;28;20200;-87
2021/06/23 01:41:29;;;;;;;5.32;3.45;;;;;;;22.04;83.67;95582.16;4970022;28;20659;-84
2021/06/23 01:43:56;;;;;;;4.40;4.00;;;;;;;22.05;82.37;95588.19;4970327;28;20207;-84
2021/06/23 01:46:27;;;;;;;3.95;3.63;;;;;;;21.99;83.15;95578.66;4970178;28;20239;-86
2021/06/23 01:48:59;;;;;;;4.00;3.47;;;;;;;21.97;83.11;95578.13;4970292;28;20227;-84
2021/06/23 01:51:25;;;;;;;3.83;3.60;;;;;;;21.95;82.68;95580.19;4970237;28;20695;-85
2021/06/23 01:53:54;;;;;;;3.83;3.53;;;;;;;21.94;83.05;95576.78;4970155;28;20599;-86
2021/06/23 01:56:23;;;;;;;3.65;3.38;;;;;;;21.94;83.00;95581.22;4969343;28;20235;-87
2021/06/23 01:58:55;;;;;;;4.45;4.05;;;;;;;21.93;82.45;95579.66;4969741;28;20570;-85
2021/06/23 02:01:31;;;;;;;4.47;4.18;;;;;;;21.86;83.17;95589.56;4969386;28;20613;-85
2021/06/23 02:04:11;;;;;;;4.70;4.10;;;;;;;21.82;83.66;95588.44;4969831;28;20208;-84
2021/06/23 02:06:51;;;;;;;4.15;3.85;;;;;;;21.64;83.81;95592.19;4969842;28;20570;-84
2021/06/23 02:09:50;;;;;;;3.65;3.42;;;;;;;21.65;83.51;95594.56;4970278;28;20235;-84
2021/06/23 02:12:36;;;;;;;4.15;3.83;;;;;;;21.62;83.99;95595.06;4969938;28;20239;-84
2021/06/23 02:15:05;;;;;;;4.00;3.60;;;;;;;21.60;83.58;95589.28;4969998;28;20200;-83
2021/06/23 02:17:32;;;;;;;4.13;3.72;;;;;;;21.57;83.30;95597.63;4970273;28;20298;-84
2021/06/23 02:20:03;;;;;;;4.15;3.75;;;;;;;21.52;83.28;95594.97;4970080;28;20231;-84
2021/06/23 02:22:33;;;;;;;4.00;3.70;;;;;;;21.51;82.71;95595.19;4969710;28;20239;-87
2021/06/23 02:25:10;;;;;;;4.10;3.80;;;;;;;21.45;83.58;95609.28;4986668;28;20272;-84
2021/06/23 02:27:40;;;;;;;3.60;3.30;;;;;;;21.45;84.72;95611.88;4980166;28;20306;-84
2021/06/23 02:30:13;;;;;;;4.72;3.45;;;;;;;21.49;84.15;95613.78;4977503;28;20204;-84
2021/06/23 02:32:41;;;;;;;4.30;3.90;;;;;;;21.54;82.97;95608.63;4985814;28;20244;-84
2021/06/23 02:35:09;;;;;;;4.18;3.78;;;;;;;21.59;83.17;95610.47;4969913;28;20295;-84
2021/06/23 02:37:40;;;;;;;4.00;3.60;;;;;;;21.67;82.78;95616.09;4970436;28;20196;-85
2021/06/23 02:40:10;;;;;;;3.50;3.28;;;;;;;21.73;82.17;95611.72;4969783;28;20204;-83
2021/06/23 02:42:38;;;;;;;4.13;3.72;;;;;;;21.69;82.90;95603.53;4969644;28;20286;-84
2021/06/23 02:45:06;;;;;;;4.10;3.40;;;;;;;21.77;81.73;95606.75;4969957;28;20600;-86
2021/06/23 02:47:33;;;;;;;6.18;3.55;;;;;;;21.79;81.80;95610.72;4989069;28;20319;-86
2021/06/23 02:50:04;;;;;;;3.28;3.00;;;;;;;21.77;82.07;95612.78;4989223;28;20214;-84
2021/06/23 02:52:33;;;;;;;4.43;4.03;;;;;;;21.74;81.98;95607.25;4988945;28;20234;-84
2021/06/23 02:55:04;;;;;;;3.55;3.33;;;;;;;21.70;81.54;95606.94;4989735;28;20908;-84
2021/06/23 02:57:31;;;;;;;3.90;3.60;;;;;;;21.70;81.60;95612.19;4984487;28;20224;-84
2021/06/23 03:00:00;;;;;;;3.95;3.65;;;;;;;21.71;81.03;95606.72;4975769;28;20204;-86
2021/06/23 03:02:27;;;;;;;4.30;3.78;;;;;;;21.74;81.55;95626.41;4968864;28;20311;-84
2021/06/23 03:04:54;;;;;;;3.95;3.55;;;;;;;21.75;80.35;95632.41;4969287;28;20211;-84
2021/06/23 03:07:22;;;;;;;4.30;3.90;;;;;;;21.75;81.43;95635.03;4969517;28;20224;-83
2021/06/23 03:09:50;;;;;;;3.47;3.28;;;;;;;21.75;80.49;95637.66;4969746;28;20212;-86
2021/06/23 03:12:19;;;;;;;6.80;4.00;;;;;;;21.73;80.74;95635.28;4972218;28;20259;-84
2021/06/23 03:14:48;;;;;;;4.10;3.25;;;;;;;21.73;80.26;95643.16;4973232;28;20207;-86
2021/06/23 03:17:18;;;;;;;3.40;3.10;;;;;;;21.70;81.21;95647.06;4973364;28;20291;-84
2021/06/23 03:19:45;;;;;;;4.00;3.70;;;;;;;21.72;80.54;95652.06;4973137;28;20311;-84
2021/06/23 03:22:21;;;;;;;3.92;3.63;;;;;;;21.70;81.10;95654.13;4972574;28;20885;-84
2021/06/23 03:24:50;;;;;;;3.97;3.67;;;;;;;21.71;80.76;95661.75;4988595;28;20207;-86
2021/06/23 03:27:17;;;;;;;3.63;3.33;;;;;;;21.73;80.71;95668.56;4992161;28;20242;-84
2021/06/23 03:30:09;;;;;;;4.38;3.45;;;;;;;21.69;81.20;95679.53;4992381;28;20226;-84
2021/06/23 03:32:38;;;;;;;3.83;3.53;;;;;;;21.71;80.80;95677.47;4991947;28;20231;-84
2021/06/23 03:35:21;;;;;;;;;;;;;;;;;;;;;
2021/06/23 03:37:48;;;;;;;4.20;3.20;;;;;;;21.71;80.99;95689.78;4983180;28;20724;-84
2021/06/23 03:40:19;;;;;;;3.53;3.33;;;;;;;21.62;82.09;95689.41;4973304;28;20211;-83
2021/06/23 03:42:46;;;;;;;3.72;3.30;;;;;;;21.63;81.90;95687.56;4972664;28;20264;-84
2021/06/23 03:45:24;;;;;;;3.63;3.42;;;;;;;21.66;80.46;95697.56;4972871;28;20259;-84
2021/06/23 03:47:52;;;;;;;3.70;3.40;;;;;;;21.59;81.21;95689.09;4972599;28;20733;-84
2021/06/23 03:50:26;;;;;;;3.90;3.60;;;;;;;21.52;81.57;95689.28;4972718;28;20196;-84
2021/06/23 03:52:57;;;;;;;3.78;3.25;;;;;;;21.48;82.39;95690.78;4971595;28;20355;-86
2021/06/23 03:55:48;;;;;;;4.00;3.60;;;;;;;21.47;82.90;95698.91;4962817;28;20219;-83
2021/06/23 03:58:14;;;;;;;3.28;3.08;;;;;;;21.45;83.34;95696.50;4984009;28;20208;-83
2021/06/23 04:00:54;;;;;;;4.22;3.30;;;;;;;21.49;83.47;95692.38;4972977;28;20244;-84
2021/06/23 04:03:30;;;;;;;5.70;3.30;;;;;;;21.49;82.10;95689.75;4972201;28;20224;-83
2021/06/23 04:05:57;;;;;;;3.53;3.33;;;;;;;21.41;82.53;95692.00;4972401;28;20207;-86
2021/06/23 04:08:27;;;;;;;8.00;3.58;;;;;;;21.43;82.81;95688.09;4972135;28;20232;-86
2021/06/23 04:11:05;;;;;;;4.00;3.70;;;;;;;21.46;82.63;95682.38;4972429;28;20212;-86
2021/06/23 04:13:41;;;;;;;3.63;3.33;;;;;;;21.49;82.66;95684.53;4972722;28;20212;-86
2021/06/23 04:16:13;;;;;;;4.07;3.70;;;;;;;21.50;82.28;95672.22;4973455;28;20211;-84
2021/06/23 04:19:23;;;;;;;6.18;3.58;;;;;;;21.53;83.20;95680.38;4973523;28;20235;-84
2021/06/23 04:21:56;;;;;;;4.63;3.90;;;;;;;21.49;84.02;95678.50;4986751;23;20223;-85
2021/06/23 04:27:11;;;;;;;5.65;5.25;;;;;;;21.50;83.03;95675.63;4976599;28;20204;-84
2021/06/23 04:29:38;;;;;;;6.15;4.85;;;;;;;21.45;83.09;95678.19;4977555;28;20259;-85
2021/06/23 04:32:05;;;;;;;4.55;4.10;;;;;;;21.40;82.96;95685.97;4975656;28;20231;-85
2021/06/23 04:34:40;;;;;;;5.15;4.75;;;;;;;21.31;84.31;95690.03;4976784;28;20255;-84
2021/06/23 04:37:12;;;;;;;5.45;5.05;;;;;;;21.34;84.19;95689.56;4974819;28;20756;-84
2021/06/23 04:39:48;;;;;;;5.10;4.63;;;;;;;21.41;84.83;95690.16;4959311;28;20575;-85
2021/06/23 04:42:16;;;;;;;5.00;4.60;;;;;;;21.46;84.07;95685.00;4957283;28;20267;-86
2021/06/23 04:44:44;;;;;;;6.57;5.97;;;;;;;21.39;85.57;95679.13;4955991;28;20233;-86
2021/06/23 04:47:12;;;;;;;5.90;5.10;;;;;;;21.45;84.79;95683.41;4973111;28;20290;-85
2021/06/23 04:49:44;;;;;;;6.30;5.65;;;;;;;21.52;85.77;95689.28;4968312;28;20256;-84
2021/06/23 04:52:11;;;;;;;5.80;5.30;;;;;;;21.62;84.87;95689.41;4954598;28;20235;-83
2021/06/23 04:54:39;;;;;;;6.35;5.75;;;;;;;21.64;85.06;95687.34;4956759;28;20201;-84
2021/06/23 04:57:06;;;;;;;6.10;5.50;;;;;;;21.69;85.90;95694.47;4955165;28;20232;-86
2021/06/23 04:59:35;;;;;;;7.22;5.75;;;;;;;21.83;85.33;95695.69;4957413;28;20200;-86
2021/06/23 05:02:03;;;;;;;5.13;4.63;;;;;;;21.98;84.53;95702.94;4956846;28;20221;-87
2021/06/23 05:04:29;;;;;;;13.98;12.80;;;;;;;22.13;83.95;95708.38;4959871;29;20216;-86
2021/06/23 05:06:58;;;;;;;14.30;13.10;;;;;;;22.16;84.06;95709.72;4959522;29;20213;-87
2021/06/23 05:09:25;;;;;;;9.18;8.35;;;;;;;22.23;83.69;95705.88;4958535;29;20240;-87
2021/06/23 05:11:52;;;;;;;9.27;7.85;;;;;;;22.25;84.63;95711.66;4958250;29;20208;-86
2021/06/23 05:14:19;;;;;;;8.70;7.68;;;;;;;22.17;86.60;95721.78;4966663;28;20211;-87
2021/06/23 05:16:48;;;;;;;8.00;7.30;;;;;;;22.08;86.48;95718.03;4974245;28;20231;-87
2021/06/23 05:19:17;;;;;;;8.23;7.43;;;;;;;21.93;88.07;95716.00;4977747;28;20264;-86
2021/06/23 05:21:44;;;;;;;8.32;7.50;;;;;;;22.00;87.73;95721.88;4977374;28;20228;-85
2021/06/23 05:24:15;;;;;;;9.30;8.50;;;;;;;21.95;86.93;95714.69;4960465;28;20204;-87
2021/06/23 05:26:42;;;;;;;8.13;7.53;;;;;;;21.97;87.37;95724.94;4958631;29;20260;-84
2021/06/23 05:29:12;;;;;;;10.18;9.23;;;;;;;21.86;88.12;95724.03;4956891;29;20593;-86
2021/06/23 05:31:41;;;;;;;8.02;7.13;;;;;;;21.92;87.70;95723.06;4952579;29;20193;-86
2021/06/23 05:34:08;;;;;;;8.95;7.95;;;;;;;21.91;88.01;95731.97;4958260;28;20196;-86
2021/06/23 05:36:35;;;;;;;9.77;8.45;;;;;;;21.87;89.32;95728.25;4959216;29;20785;-86
2021/06/23 05:39:01;;;;;;;9.40;8.50;;;;;;;21.79;88.68;95728.66;4956857;29;20798;-85
2021/06/23 05:41:29;;;;;;;8.32;7.72;;;;;;;21.84;88.19;95730.56;4957260;29;20301;-85
2021/06/23 05:43:56;;;;;;;8.02;7.43;;;;;;;21.76;88.53;95729.13;4956462;28;20229;-84
2021/06/23 05:46:23;;;;;;;8.75;8.07;;;;;;;21.70;90.47;95730.13;4955758;29;20229;-86
2021/06/23 05:48:49;;;;;;;8.02;7.43;;;;;;;21.78;89.90;95728.91;4957359;29;20263;-87
2021/06/23 05:51:22;;;;;;;8.95;8.13;;;;;;;21.85;89.14;95729.53;4957072;29;20193;-86
2021/06/23 05:53:51;;;;;;;8.68;7.97;;;;;;;21.80;88.02;95743.34;4957220;29;20848;-87
2021/06/23 05:56:18;;;;;;;8.27;7.50;;;;;;;21.85;87.97;95743.44;4955892;28;20232;-87
2021/06/23 05:58:46;;;;;;;8.23;7.63;;;;;;;21.83;87.33;95744.69;4955615;29;20208;-88
2021/06/23 06:01:14;;;;;;;7.88;7.18;;;;;;;21.94;87.03;95741.16;4954688;29;20235;-85
2021/06/23 06:03:41;;;;;;;7.50;6.90;;;;;;;21.89;87.02;95749.78;4950502;28;20217;-86
2021/06/23 06:06:08;;;;;;;6.93;6.43;;;;;;;21.92;87.86;95748.50;4951971;28;20208;-85
2021/06/23 06:08:34;;;;;;;7.28;6.70;;;;;;;21.94;88.18;95749.03;4956086;29;20549;-86
2021/06/23 06:11:04;;;;;;;7.03;6.43;;;;;;;21.99;87.64;95756.97;4956140;28;20824;-84
2021/06/23 06:13:30;;;;;;;7.30;6.80;;;;;;;21.93;87.34;95756.13;4956826;29;20221;-84
2021/06/23 06:16:02;;;;;;;5.65;5.25;;;;;;;22.04;86.39;95755.22;4955474;28;20669;-85
2021/06/23 06:18:29;;;;;;;6.82;6.22;;;;;;;22.10;84.55;95763.16;4956922;28;20319;-86
2021/06/23 06:20:57;;;;;;;6.40;5.90;;;;;;;22.10;83.62;95760.56;4957019;28;20312;-84
2021/06/23 06:23:24;;;;;;;7.57;6.25;;;;;;;21.99;84.87;95763.00;4952801;28;20295;-85
2021/06/23 06:25:51;;;;;;;6.20;5.70;;;;;;;21.79;82.88;95754.88;4952237;28;20220;-86
2021/06/23 06:28:18;;;;;;;6.00;5.45;;;;;;;21.93;82.83;95753.50;4952069;28;20228;-87
2021/06/23 06:30:44;;;;;;;6.13;5.63;;;;;;;22.08;82.75;95767.88;4962070;28;20209;-86
2021/06/23 06:33:15;;;;;;;7.35;6.63;;;;;;;22.14;81.08;95759.78;4954757;28;20225;-85
2021/06/23 06:35:42;;;;;;;6.88;6.38;;;;;;;22.12;80.73;95755.84;4953595;29;20204;-86
2021/06/23 06:38:08;;;;;;;7.00;6.40;;;;;;;22.11;81.65;95762.94;4957880;28;20227;-86
2021/06/23 06:40:35;;;;;;;6.10;5.50;;;;;;;22.10;81.58;95763.97;4957251;28;20201;-82
2021/06/23 06:43:11;;;;;;;7.55;6.95;;;;;;;22.13;80.67;95767.94;4957873;29;20229;-85
2021/06/23 06:45:37;;;;;;;7.90;7.28;;;;;;;22.22;80.27;95774.31;4957151;28;20620;-87
2021/06/23 06:48:08;;;;;;;6.63;6.13;;;;;;;22.38;79.38;95770.81;4962236;29;20212;-87
2021/06/23 06:53:27;;;;;;;6.80;6.20;;;;;;;22.56;78.03;95774.94;4943434;28;20256;-88
2021/06/23 06:55:58;;;;;;;7.30;6.70;;;;;;;22.56;78.73;95774.94;4961429;28;20243;-88
2021/06/23 07:01:05;;;;;;;6.90;6.40;;;;;;;22.66;76.46;95773.25;4952481;28;20239;-90
2021/06/23 07:03:37;;;;;;;7.28;6.63;;;;;;;22.74;76.53;95769.38;4956838;29;20228;-86
2021/06/23 07:06:05;;;;;;;6.50;6.00;;;;;;;22.80;75.28;95765.78;4961304;29;20627;-88
2021/06/23 07:08:32;;;;;;;6.20;5.70;;;;;;;22.83;74.47;95762.66;4957251;29;20197;-86
2021/06/23 07:10:58;;;;;;;6.07;5.47;;;;;;;22.83;75.24;95765.28;4955654;28;20211;-85
2021/06/23 07:13:28;;;;;;;5.55;5.15;;;;;;;22.90;76.20;95763.22;4951696;29;20232;-84
2021/06/23 07:15:55;;;;;;;6.07;5.53;;;;;;;22.92;76.64;95761.16;4961561;29;20268;-84
2021/06/23 07:18:21;;;;;;;5.45;5.05;;;;;;;22.88;74.65;95760.09;4960402;29;20315;-84
2021/06/23 07:20:48;;;;;;;4.93;4.47;;;;;;;22.91;75.67;95758.78;4961141;29;20209;-81
2021/06/23 07:23:16;;;;;;;5.00;4.50;;;;;;;22.88;75.46;95754.06;4956791;29;20596;-84
2021/06/23 07:25:45;;;;;;;5.07;4.60;;;;;;;22.91;74.32;95756.94;4959253;28;20208;-84
2021/06/23 07:28:15;;;;;;;5.15;4.65;;;;;;;22.75;76.30;95748.09;4957851;29;20264;-86
2021/06/23 07:30:45;;;;;;;4.20;3.90;;;;;;;22.54;72.71;95742.91;4959889;29;20265;-86
2021/06/23 07:33:12;;;;;;;4.72;4.10;;;;;;;22.53;75.25;95739.50;4960325;29;20788;-86
2021/06/23 07:38:28;;;;;;;5.80;5.20;;;;;;;22.59;75.25;95738.50;4958044;29;20231;-86
2021/06/23 07:41:00;;;;;;;5.60;5.20;;;;;;;22.53;76.41;95736.88;4950231;29;20212;-89
2021/06/23 07:43:28;;;;;;;6.53;5.40;;;;;;;22.52;77.32;95743.16;4955671;29;20636;-90
2021/06/23 07:45:58;;;;;;;5.80;5.40;;;;;;;22.54;71.22;95732.41;4957663;29;20208;-84
2021/06/23 07:48:48;;;;;;;5.45;5.05;;;;;;;22.51;71.69;95741.59;4955493;28;20239;-86
2021/06/23 07:51:35;;;;;;;5.68;5.18;;;;;;;22.53;68.71;95729.00;4955623;28;20203;-86
2021/06/23 08:10:36;;;;;;;7.00;6.40;;;;;;;22.34;73.99;95744.28;4959251;29;20200;-83
2021/06/23 08:13:02;;;;;;;7.07;6.47;;;;;;;22.30;74.05;95743.22;4960834;29;20847;-85
2021/06/23 08:15:31;;;;;;;6.40;5.90;;;;;;;22.40;73.85;95743.31;4956778;28;20200;-83
2021/06/23 08:17:57;;;;;;;7.38;6.78;;;;;;;22.38;73.93;95737.50;4956676;28;20213;-86
2021/06/23 08:20:28;;;;;;;6.90;6.25;;;;;;;22.46;74.47;95740.75;4954952;29;20669;-84
2021/06/23 08:22:57;;;;;;;11.55;6.57;;;;;;;22.55;73.90;95747.91;4953905;29;20292;-84
2021/06/23 08:25:25;;;;;;;6.45;5.85;;;;;;;22.69;73.30;95743.09;4955309;29;20212;-84
2021/06/23 08:27:54;;;;;;;5.97;5.47;;;;;;;22.89;74.70;95743.28;4955635;29;20215;-85
2021/06/23 08:30:22;;;;;;;6.82;6.22;;;;;;;22.85;71.82;95742.19;4958543;29;20252;-86
2021/06/23 08:32:49;;;;;;;6.68;6.15;;;;;;;22.71;73.17;95736.50;4957736;29;20309;-84
2021/06/23 08:35:16;;;;;;;6.32;5.82;;;;;;;22.72;71.58;95735.47;4957524;29;20743;-84
2021/06/23 08:37:44;;;;;;;6.85;6.25;;;;;;;22.70;72.11;95744.66;4957546;29;20207;-86
2021/06/23 08:40:13;;;;;;;6.35;5.85;;;;;;;22.84;69.84;95732.75;4955070;28;20231;-84
2021/06/23 08:42:41;;;;;;;6.15;5.57;;;;;;;23.10;70.47;95736.34;4955188;29;20713;-84
2021/06/23 08:45:17;;;;;;;7.85;5.80;;;;;;;23.14;69.74;95726.13;4957825;29;20273;-84
2021/06/23 08:47:48;;;;;;;6.45;5.85;;;;;;;23.18;71.43;95728.00;4959495;28;20200;-84
2021/06/23 08:50:18;;;;;;;6.35;5.75;;;;;;;23.56;69.83;95734.06;4964838;28;20636;-83
2021/06/23 08:52:45;;;;;;;6.10;5.60;;;;;;;23.87;67.33;95729.75;4959814;29;20227;-82
2021/06/23 08:55:13;;;;;;;6.18;5.63;;;;;;;24.15;68.28;95728.56;4958500;29;20197;-84
2021/06/23 08:57:42;;;;;;;6.53;5.93;;;;;;;24.30;65.99;95731.25;4956985;28;20232;-86
2021/06/23 09:00:11;;;;;;;6.15;5.55;;;;;;;24.45;66.98;95729.44;4958842;29;20225;-85
2021/06/23 09:02:41;;;;;;;5.10;4.60;;;;;;;24.73;66.78;95727.41;4955780;29;20224;-84
2021/06/23 09:05:11;;;;;;;4.68;4.35;;;;;;;25.02;67.11;95720.59;4956580;29;20201;-85
2021/06/23 09:08:07;;;;;;;5.78;4.80;;;;;;;25.31;62.14;95728.75;4958334;29;20240;-84
2021/06/23 09:13:45;;;;;;;4.35;3.95;;;;;;;25.61;58.02;95727.88;4945593;29;20224;-84
2021/06/23 09:16:20;;;;;;;4.38;4.05;;;;;;;25.15;59.67;95718.50;4952570;29;20193;-85
2021/06/23 09:18:52;;;;;;;4.32;3.95;;;;;;;25.17;59.57;95722.44;4949276;29;20231;-86
2021/06/23 09:21:28;;;;;;;6.15;3.80;;;;;;;24.99;59.05;95720.34;4950170;29;20483;-85
2021/06/23 09:24:01;;;;;;;4.63;4.10;;;;;;;24.75;60.48;95717.41;4943615;29;20263;-85
2021/06/23 09:26:37;;;;;;;3.90;3.60;;;;;;;24.53;59.23;95728.16;4951648;28;20208;-86
2021/06/23 09:29:09;;;;;;;4.00;3.67;;;;;;;24.50;62.10;95727.88;4933548;29;20299;-84
2021/06/23 09:32:10;;;;;;;3.92;3.53;;;;;;;24.54;63.24;95729.75;4932378;29;20211;-86
2021/06/23 09:34:38;;;;;;;4.20;3.90;;;;;;;24.55;61.69;95725.28;4933786;29;20311;-84
2021/06/23 09:37:24;;;;;;;4.10;3.70;;;;;;;24.54;59.12;95713.16;4952895;28;20200;-84
2021/06/23 09:40:29;;;;;;;4.20;3.80;;;;;;;24.50;59.68;95720.00;4961549;28;20223;-84
2021/06/23 09:43:18;;;;;;;4.30;3.90;;;;;;;24.48;62.01;95714.97;4949707;29;20224;-87
2021/06/23 09:45:55;;;;;;;4.50;4.07;;;;;;;24.42;61.93;95716.84;4950155;29;20200;-85
2021/06/23 09:48:28;;;;;;;3.65;3.35;;;;;;;24.45;62.90;95723.41;4963130;28;20206;-86
2021/06/23 09:51:16;;;;;;;3.40;3.10;;;;;;;24.50;62.28;95710.25;4969753;28;20204;-86
2021/06/23 09:53:43;;;;;;;5.05;3.45;;;;;;;24.48;62.67;95707.09;4952588;28;20219;-86
2021/06/23 09:56:35;;;;;;;3.40;3.08;;;;;;;24.40;62.24;95715.50;4949495;28;20224;-85
2021/06/23 09:59:03;;;;;;;3.40;3.00;;;;;;;24.30;58.79;95712.84;4931299;29;20320;-86
2021/06/23 10:01:37;;;;;;;4.43;3.10;;;;;;;24.07;61.17;95714.03;4944451;29;20212;-86
2021/06/23 10:04:15;;;;;;;3.10;2.90;;;;;;;24.06;60.44;95720.34;4947597;29;20313;-86
2021/06/23 10:06:50;;;;;;;3.65;3.35;;;;;;;24.05;59.42;95713.53;4950711;29;20259;-87
2021/06/23 10:09:24;;;;;;;3.90;2.95;;;;;;;24.23;60.90;95707.81;4951193;29;20208;-86
2021/06/23 10:11:53;;;;;;;4.90;3.35;;;;;;;24.48;57.77;95706.28;4950817;29;20208;-84
2021/06/23 10:14:21;;;;;;;2.63;2.42;;;;;;;24.93;56.90;95698.44;4953355;29;20213;-83
2021/06/23 10:16:49;;;;;;;3.30;3.00;;;;;;;25.01;57.65;95697.97;4954633;29;20825;-84
2021/06/23 10:19:18;;;;;;;6.38;2.92;;;;;;;25.01;59.10;95703.22;4954445;29;20212;-84
2021/06/23 10:21:46;;;;;;;3.72;3.10;;;;;;;24.97;57.98;95698.75;4957753;28;20199;-84
2021/06/23 10:24:14;;;;;;;3.22;3.00;;;;;;;25.04;58.62;95694.75;4955111;29;20205;-84
2021/06/23 10:26:48;;;;;;;3.58;3.13;;;;;;;25.07;58.24;95691.59;4955288;29;20276;-85
2021/06/23 10:29:19;;;;;;;3.75;3.40;;;;;;;25.03;59.04;95695.81;4955910;29;20269;-86
2021/06/23 10:31:46;;;;;;;3.08;2.85;;;;;;;25.18;60.32;95686.34;4958336;29;20243;-85
2021/06/23 10:34:15;;;;;;;3.22;3.00;;;;;;;25.20;59.28;95690.28;4959268;29;20609;-86
2021/06/23 10:36:43;;;;;;;3.45;3.15;;;;;;;25.26;59.05;95691.84;4959238;29;20304;-83
2021/06/23 10:39:10;;;;;;;3.40;3.10;;;;;;;25.20;57.93;95689.50;4954158;28;20220;-84
2021/06/23 10:41:42;;;;;;;3.33;3.08;;;;;;;25.13;59.46;95681.84;4953294;29;20193;-85
2021/06/23 10:44:23;;;;;;;3.53;3.22;;;;;;;25.10;60.10;95687.66;4957077;29;20224;-85
2021/06/23 10:46:54;;;;;;;4.03;3.72;;;;;;;24.88;57.72;95687.09;4962117;29;20212;-85
2021/06/23 10:49:39;;;;;;;3.67;3.38;;;;;;;24.69;57.90;95674.47;4965556;28;20205;-84
2021/06/23 10:52:36;;;;;;;3.83;3.40;;;;;;;24.65;55.96;95677.88;4967968;29;20760;-85
2021/06/23 10:55:07;;;;;;;4.05;3.45;;;;;;;24.70;57.04;95672.63;4965114;29;20260;-84
2021/06/23 10:57:40;;;;;;;3.92;3.40;;;;;;;24.94;56.79;95665.81;4958857;28;20410;-85
2021/06/23 11:00:30;;;;;;;3.00;2.80;;;;;;;25.47;54.87;95666.22;4959413;28;20231;-86
2021/06/23 11:03:02;;;;;;;3.20;2.92;;;;;;;25.58;55.12;95659.88;4960536;29;20221;-83
2021/06/23 11:05:35;;;;;;;3.50;3.20;;;;;;;25.70;55.09;95660.38;4960429;29;20208;-83
2021/06/23 11:08:22;;;;;;;3.05;2.85;;;;;;;25.50;53.23;95667.53;4961292;29;20236;-84
2021/06/23 11:10:51;;;;;;;4.35;2.65;;;;;;;25.55;55.77;95670.97;4957768;29;20196;-83
2021/06/23 11:13:19;;;;;;;2.92;2.60;;;;;;;26.16;54.70;95668.09;4965037;28;20284;-84
2021/06/23 11:15:49;;;;;;;2.85;2.70;;;;;;;26.49;52.93;95669.25;4961689;29;20269;-85
2021/06/23 11:18:31;;;;;;;5.32;2.90;;;;;;;26.48;51.99;95671.09;4963549;29;20220;-86
2021/06/23 11:20:59;;;;;;;2.97;2.78;;;;;;;26.24;51.17;95672.00;4959538;29;20235;-85
2021/06/23 11:23:59;;;;;;;2.95;2.67;;;;;;;26.62;51.65;95663.34;4959790;29;20224;-84
2021/06/23 11:26:53;;;;;;;2.95;2.75;;;;;;;27.06;51.47;95657.19;4963009;29;20208;-85
2021/06/23 11:29:26;;;;;;;3.00;2.72;;;;;;;27.46;51.12;95654.13;4962075;29;20840;-85
2021/06/23 11:31:58;;;;;;;3.55;2.80;;;;;;;27.36;52.56;95662.16;4973821;28;20204;-83
2021/06/23 11:34:47;;;;;;;3.15;2.60;;;;;;;26.89;51.56;95662.06;4979527;28;20215;-84
2021/06/23 11:37:16;;;;;;;3.80;2.72;;;;;;;26.58;52.30;95659.66;4977806;28;20199;-83
2021/06/23 11:39:49;;;;;;;3.03;2.83;;;;;;;26.29;54.07;95658.78;4962416;28;20228;-83
2021/06/23 11:42:19;;;;;;;3.47;2.90;;;;;;;26.15;54.44;95658.59;4962212;28;20260;-85
2021/06/23 11:44:47;;;;;;;3.03;2.80;;;;;;;26.07;55.67;95665.22;4961882;28;20209;-85
2021/06/23 11:47:15;;;;;;;4.43;3.30;;;;;;;25.97;55.50;95661.88;4960087;29;20212;-82
2021/06/23 11:49:45;;;;;;;3.28;2.88;;;;;;;25.87;55.85;95660.06;4963088;28;20201;-82
2021/06/23 11:52:12;;;;;;;3.67;3.38;;;;;;;25.85;56.28;95664.03;4962044;29;20232;-84
2021/06/23 11:54:39;;;;;;;3.30;3.10;;;;;;;25.87;57.54;95665.31;4961598;29;20243;-84
2021/06/23 11:57:08;;;;;;;4.15;3.25;;;;;;;25.76;54.67;95667.25;4958948;28;20225;-85
2021/06/23 11:59:36;;;;;;;3.60;3.30;;;;;;;25.63;54.91;95669.63;4956243;29;20704;-84
2021/06/23 12:02:03;;;;;;;3.58;3.28;;;;;;;25.61;56.75;95671.72;4959093;29;20205;-85
2021/06/23 12:04:31;;;;;;;3.05;2.85;;;;;;;25.55;56.97;95670.19;4958314;29;20216;-83
2021/06/23 12:06:58;;;;;;;3.60;3.30;;;;;;;25.57;57.67;95671.50;4960070;29;20555;-85
2021/06/23 12:09:24;;;;;;;3.75;3.40;;;;;;;25.57;55.58;95662.78;4958630;29;20207;-84
2021/06/23 12:11:53;;;;;;;4.03;3.67;;;;;;;25.49;55.00;95653.56;4958443;29;20268;-83
2021/06/23 12:14:19;;;;;;;3.63;3.42;;;;;;;25.83;55.12;95652.94;4955532;29;20189;-84
2021/06/23 12:16:48;;;;;;;3.58;3.38;;;;;;;26.34;54.21;95658.78;4952904;29;20213;-84
2021/06/23 12:19:14;;;;;;;3.60;3.30;;;;;;;26.61;51.83;95655.69;4957946;28;20201;-85
2021/06/23 12:21:41;;;;;;;3.35;3.15;;;;;;;26.74;49.36;95649.78;4960709;28;20209;-85
2021/06/23 12:24:16;;;;;;;3.75;2.90;;;;;;;26.86;49.91;95650.19;4953647;28;20244;-86